createdAt,value
2022-10-18T00:00:48.027Z,11.50
2022-10-18T00:03:14.506Z,13.52
2022-10-18T00:05:40.949Z,13.23
2022-10-18T00:08:07.428Z,12.10
2022-10-18T00:10:33.968Z,15.70
2022-10-18T00:13:00.490Z,18.60
2022-10-18T00:15:27.162Z,12.38
2022-10-18T00:17:53.604Z,9.07
2022-10-18T00:20:20.072Z,12.27
2022-10-18T00:22:46.584Z,11.60
2022-10-18T00:25:15.183Z,10.63
2022-10-18T00:27:41.668Z,10.68
2022-10-18T00:30:08.767Z,12.75
2022-10-18T00:32:42.211Z,18.48
2022-10-18T00:35:09.515Z,12.05
2022-10-18T00:37:36.367Z,10.82
2022-10-18T00:40:03.053Z,10.48
2022-10-18T00:42:34.301Z,10.80
2022-10-18T00:45:16.689Z,14.25
2022-10-18T00:47:48.601Z,10.60
2022-10-18T00:50:15.395Z,10.63
2022-10-18T00:52:46.789Z,12.05
2022-10-18T00:55:13.555Z,12.88
2022-10-18T00:57:43.022Z,11.07
2022-10-18T01:00:10.882Z,14.77
2022-10-18T01:02:38.623Z,14.68
2022-10-18T01:05:06.013Z,13.75
2022-10-18T01:07:44.997Z,12.45
2022-10-18T01:10:22.176Z,14.02
2022-10-18T01:13:28.670Z,13.63
2022-10-18T01:16:03.704Z,12.73
2022-10-18T01:18:52.981Z,15.02
2022-10-18T01:21:31.619Z,14.40
2022-10-18T01:24:35.727Z,12.70
2022-10-18T01:27:27.358Z,11.45
2022-10-18T01:30:22.288Z,12.60
2022-10-18T01:32:52.706Z,13.32
2022-10-18T01:35:27.037Z,13.65
2022-10-18T01:37:56.040Z,13.52
2022-10-18T01:40:24.376Z,11.55
2022-10-18T01:42:51.032Z,13.13
2022-10-18T01:45:18.974Z,14.70
2022-10-18T01:47:47.433Z,11.98
2022-10-18T01:50:14.078Z,11.18
2022-10-18T01:52:50.279Z,15.45
2022-10-18T01:55:18.362Z,14.85
2022-10-18T01:58:22.568Z,13.38
2022-10-18T02:01:00.921Z,13.48
2022-10-18T02:03:29.342Z,10.80
2022-10-18T02:06:09.405Z,12.75
2022-10-18T02:08:58.587Z,14.00
2022-10-18T02:11:26.955Z,14.23
2022-10-18T02:13:56.453Z,9.48
2022-10-18T02:16:26.067Z,10.95
2022-10-18T02:19:15.814Z,14.73
2022-10-18T02:21:44.241Z,12.18
2022-10-18T02:24:14.001Z,10.25
2022-10-18T02:26:40.663Z,12.55
2022-10-18T02:29:08.434Z,11.18
2022-10-18T02:32:04.950Z,11.70
2022-10-18T02:34:43.130Z,13.35
2022-10-18T02:37:11.273Z,14.07
2022-10-18T02:39:42.467Z,12.20
2022-10-18T02:42:10.856Z,16.00
2022-10-18T02:44:38.248Z,13.70
2022-10-18T02:47:06.470Z,10.02
2022-10-18T02:49:32.995Z,11.68
2022-10-18T02:51:59.571Z,9.27
2022-10-18T02:54:26.004Z,11.05
2022-10-18T02:56:52.600Z,11.77
2022-10-18T02:59:19.045Z,13.70
2022-10-18T03:01:45.562Z,12.63
2022-10-18T03:04:12.083Z,12.15
2022-10-18T03:06:38.621Z,13.52
2022-10-18T03:09:06.020Z,14.80
2022-10-18T03:11:32.636Z,15.27
2022-10-18T03:13:59.116Z,13.00
2022-10-18T03:16:25.639Z,17.58
2022-10-18T03:18:52.119Z,14.05
2022-10-18T03:21:18.590Z,15.40
2022-10-18T03:23:45.010Z,11.20
2022-10-18T03:26:11.558Z,10.65
2022-10-18T03:28:38.050Z,15.23
2022-10-18T03:31:04.725Z,14.32
2022-10-18T03:33:32.154Z,15.48
2022-10-18T03:35:58.638Z,12.48
2022-10-18T03:38:25.131Z,12.35
2022-10-18T03:40:51.710Z,12.20
2022-10-18T03:43:18.152Z,12.70
2022-10-18T03:45:45.142Z,11.77
2022-10-18T03:48:11.712Z,13.68
2022-10-18T03:50:38.494Z,15.32
2022-10-18T03:53:05.087Z,14.95
2022-10-18T03:55:31.813Z,11.40
2022-10-18T03:57:58.345Z,11.00
2022-10-18T04:00:24.934Z,13.40
2022-10-18T04:02:54.920Z,15.88
2022-10-18T04:05:22.669Z,13.48
2022-10-18T04:07:49.193Z,10.32
2022-10-18T04:10:15.985Z,11.98
2022-10-18T04:12:42.424Z,9.55
2022-10-18T04:15:09.597Z,11.57
2022-10-18T04:17:36.082Z,14.50
2022-10-18T04:20:02.560Z,10.73
2022-10-18T04:22:28.988Z,19.25
2022-10-18T04:24:55.448Z,13.65
2022-10-18T04:27:22.130Z,13.57
2022-10-18T04:29:48.634Z,9.07
2022-10-18T04:32:15.155Z,12.00
2022-10-18T04:34:44.647Z,13.70
2022-10-18T04:37:11.205Z,15.80
2022-10-18T04:39:37.701Z,12.20
2022-10-18T04:42:04.151Z,11.70
2022-10-18T04:44:30.666Z,13.00
2022-10-18T04:46:57.087Z,9.75
2022-10-18T04:49:23.567Z,13.00
2022-10-18T04:51:50.021Z,10.73
2022-10-18T04:54:16.551Z,16.60
2022-10-18T04:56:42.984Z,7.35
2022-10-18T04:59:09.483Z,16.13
2022-10-18T05:01:35.929Z,12.00
2022-10-18T05:04:02.430Z,11.95
2022-10-18T05:06:28.895Z,19.23
2022-10-18T05:08:55.373Z,11.55
2022-10-18T05:11:21.940Z,12.32
2022-10-18T05:13:50.188Z,12.15
2022-10-18T05:16:17.780Z,10.27
2022-10-18T05:18:44.333Z,11.52
2022-10-18T05:21:10.840Z,14.90
2022-10-18T05:23:37.281Z,15.07
2022-10-18T05:26:07.331Z,13.50
2022-10-18T05:28:39.241Z,14.02
2022-10-18T05:31:08.901Z,10.35
2022-10-18T05:33:35.960Z,11.70
2022-10-18T05:36:02.818Z,11.40
2022-10-18T05:38:29.292Z,8.95
2022-10-18T05:40:55.787Z,9.10
2022-10-18T05:43:22.228Z,11.02
2022-10-18T05:45:51.734Z,8.95
2022-10-18T05:48:18.710Z,14.07
2022-10-18T05:50:45.468Z,11.07
2022-10-18T05:53:12.831Z,12.95
2022-10-18T05:56:01.997Z,12.82
2022-10-18T05:58:28.746Z,17.30
2022-10-18T06:00:58.964Z,14.52
2022-10-18T06:03:25.464Z,10.88
2022-10-18T06:05:51.906Z,11.13
2022-10-18T06:08:18.397Z,12.13
2022-10-18T06:10:44.835Z,10.32
2022-10-18T06:13:11.290Z,15.27
2022-10-18T06:15:37.709Z,13.05
2022-10-18T06:18:04.201Z,17.27
2022-10-18T06:20:30.640Z,10.73
2022-10-18T06:22:57.103Z,12.90
2022-10-18T06:25:23.544Z,11.85
2022-10-18T06:27:50.016Z,11.13
2022-10-18T06:30:16.518Z,9.93
2022-10-18T06:32:43.010Z,14.98
2022-10-18T06:35:09.639Z,11.55
2022-10-18T06:37:36.377Z,12.27
2022-10-18T06:40:03.055Z,13.88
2022-10-18T06:42:29.710Z,15.95
2022-10-18T06:44:56.217Z,10.77
2022-10-18T06:47:22.721Z,11.75
2022-10-18T06:49:49.400Z,13.02
2022-10-18T06:52:18.668Z,10.63
2022-10-18T06:54:45.502Z,13.95
2022-10-18T06:57:12.048Z,12.57
2022-10-18T06:59:38.540Z,12.15
2022-10-18T07:02:05.109Z,8.95
2022-10-18T07:04:31.607Z,11.75
2022-10-18T07:06:58.103Z,11.45
2022-10-18T07:09:24.588Z,10.43
2022-10-18T07:11:51.003Z,12.48
2022-10-18T07:14:17.427Z,12.00
2022-10-18T07:16:43.877Z,9.82
2022-10-18T07:19:10.394Z,12.95
2022-10-18T07:21:36.851Z,13.43
2022-10-18T07:24:03.665Z,14.52
2022-10-18T07:26:34.106Z,11.27
2022-10-18T07:29:10.199Z,13.85
2022-10-18T07:31:37.407Z,9.40
2022-10-18T07:34:05.481Z,14.25
2022-10-18T07:36:32.043Z,15.90
2022-10-18T07:38:58.686Z,16.75
2022-10-18T07:41:25.480Z,9.18
2022-10-18T07:43:53.079Z,12.18
2022-10-18T07:46:22.007Z,10.75
2022-10-18T07:48:48.656Z,11.48
2022-10-18T07:51:15.278Z,9.48
2022-10-18T07:53:41.745Z,10.52
2022-10-18T07:56:10.801Z,10.73
2022-10-18T07:58:37.450Z,8.45
2022-10-18T08:01:06.207Z,12.35
2022-10-18T08:03:33.308Z,8.70
2022-10-18T08:05:59.921Z,8.88
2022-10-18T08:08:27.080Z,6.00
2022-10-18T08:10:53.734Z,8.55
2022-10-18T08:13:20.641Z,8.18
2022-10-18T08:15:47.817Z,9.02
2022-10-18T08:18:14.480Z,9.63
2022-10-18T08:20:45.220Z,11.23
2022-10-18T08:23:12.120Z,11.70
2022-10-18T08:25:38.625Z,12.70
2022-10-18T08:28:07.075Z,9.52
2022-10-18T08:30:35.274Z,9.38
2022-10-18T08:33:02.756Z,12.18
2022-10-18T08:35:29.256Z,10.50
2022-10-18T08:37:55.698Z,9.82
2022-10-18T08:40:22.379Z,10.65
2022-10-18T08:43:21.445Z,10.15
2022-10-18T08:45:49.726Z,13.13
2022-10-18T08:48:39.737Z,10.40
2022-10-18T08:51:18.239Z,11.98
2022-10-18T08:53:58.245Z,9.38
2022-10-18T08:56:25.712Z,14.68
2022-10-18T08:58:52.171Z,9.35
2022-10-18T09:01:36.413Z,9.23
2022-10-18T09:04:33.456Z,7.43
2022-10-18T09:07:39.896Z,8.70
2022-10-18T09:10:50.394Z,7.80
2022-10-18T09:13:32.210Z,13.15
2022-10-18T09:16:00.750Z,8.80
2022-10-18T09:18:44.298Z,9.15
2022-10-18T09:21:20.905Z,12.48
2022-10-18T09:23:49.963Z,9.88
2022-10-18T09:26:24.245Z,9.32
2022-10-18T09:29:05.788Z,10.70
2022-10-18T09:31:49.332Z,10.48
2022-10-18T09:34:34.669Z,9.05
2022-10-18T09:37:02.026Z,10.80
2022-10-18T09:39:32.696Z,11.38
2022-10-18T09:42:04.895Z,11.75
2022-10-18T09:44:53.432Z,13.55
2022-10-18T09:47:25.291Z,10.65
2022-10-18T09:50:03.652Z,9.48
2022-10-18T09:52:39.898Z,9.88
2022-10-18T09:55:18.370Z,8.82
2022-10-18T09:57:53.414Z,12.50
2022-10-18T10:00:28.708Z,12.70
2022-10-18T10:02:55.330Z,15.38
2022-10-18T10:05:21.797Z,10.95
2022-10-18T10:07:49.407Z,14.43
2022-10-18T10:10:30.319Z,10.85
2022-10-18T10:13:15.177Z,10.38
2022-10-18T10:15:51.789Z,9.52
2022-10-18T10:18:24.575Z,14.32
2022-10-18T10:20:57.069Z,12.63
2022-10-18T10:23:23.477Z,15.07
2022-10-18T10:25:57.118Z,15.57
2022-10-18T10:28:28.577Z,13.05
2022-10-18T10:31:28.216Z,14.88
2022-10-18T10:34:05.101Z,12.05
2022-10-18T10:36:33.643Z,12.45
2022-10-18T10:39:03.044Z,11.38
2022-10-18T10:41:29.996Z,9.18
2022-10-18T10:43:57.129Z,10.90
2022-10-18T10:46:23.811Z,12.32
2022-10-18T10:49:09.567Z,11.27
2022-10-18T10:51:40.793Z,12.25
2022-10-18T10:54:18.987Z,13.65
2022-10-18T10:56:54.726Z,8.48
2022-10-18T10:59:24.727Z,10.43
2022-10-18T11:02:14.083Z,15.30
2022-10-18T11:04:42.186Z,18.98
2022-10-18T11:07:26.984Z,12.82
2022-10-18T11:10:25.951Z,10.13
2022-10-18T11:13:22.503Z,11.93
2022-10-18T11:16:12.077Z,12.13
2022-10-18T11:18:38.577Z,9.77
2022-10-18T11:21:16.532Z,10.13
2022-10-18T11:23:43.920Z,10.48
2022-10-18T11:26:13.394Z,13.20
2022-10-18T11:29:10.939Z,13.07
2022-10-18T11:31:52.617Z,10.43
2022-10-18T11:34:45.064Z,10.32
2022-10-18T11:37:39.660Z,12.27
2022-10-18T11:40:27.853Z,9.85
2022-10-18T11:43:38.998Z,11.60
2022-10-18T11:46:22.608Z,7.38
2022-10-18T11:49:10.780Z,10.80
2022-10-18T11:52:03.642Z,8.95
2022-10-18T11:54:57.470Z,10.48
2022-10-18T11:57:45.392Z,11.60
2022-10-18T12:00:21.131Z,9.20
2022-10-18T12:03:03.168Z,11.50
2022-10-18T12:05:31.715Z,9.80
2022-10-18T12:08:07.017Z,12.05
2022-10-18T12:10:45.691Z,8.65
2022-10-18T12:13:46.580Z,10.32
2022-10-18T12:16:14.146Z,6.20
2022-10-18T12:19:26.688Z,7.88
2022-10-18T12:22:02.479Z,6.53
2022-10-18T12:24:31.655Z,6.03
2022-10-18T12:27:01.272Z,13.25
2022-10-18T12:29:52.516Z,10.52
2022-10-18T12:32:26.945Z,11.05
2022-10-18T12:35:00.369Z,7.50
2022-10-18T12:37:45.476Z,9.45
2022-10-18T12:40:21.564Z,12.55
2022-10-18T12:42:50.800Z,7.60
2022-10-18T12:45:23.977Z,11.15
2022-10-18T12:47:51.197Z,12.38
2022-10-18T12:50:31.348Z,11.32
2022-10-18T12:53:22.424Z,7.90
2022-10-18T12:55:51.746Z,8.80
2022-10-18T12:58:23.665Z,6.93
2022-10-18T13:00:50.077Z,7.82
2022-10-18T13:03:16.480Z,9.07
2022-10-18T13:05:53.003Z,6.57
2022-10-18T13:08:29.371Z,7.78
2022-10-18T13:11:01.589Z,5.72
2022-10-18T13:13:39.354Z,7.35
2022-10-18T13:16:26.809Z,5.88
2022-10-18T13:19:01.307Z,8.45
2022-10-18T13:21:46.147Z,8.90
2022-10-18T13:24:31.088Z,10.27
2022-10-18T13:27:31.368Z,7.72
2022-10-18T13:30:20.560Z,10.65
2022-10-18T13:32:52.754Z,11.98
2022-10-18T13:35:40.897Z,9.43
2022-10-18T13:38:34.844Z,8.15
2022-10-18T13:43:53.582Z,9.82
2022-10-18T13:46:20.738Z,6.38
2022-10-18T13:48:55.000Z,7.15
2022-10-18T13:51:51.877Z,8.23
2022-10-18T13:54:37.073Z,5.85
2022-10-18T13:57:09.578Z,10.02
2022-10-18T13:59:54.021Z,9.98
2022-10-18T14:02:59.411Z,10.65
2022-10-18T14:05:41.705Z,9.55
2022-10-18T14:08:56.465Z,6.35
2022-10-18T14:11:32.040Z,7.40
2022-10-18T14:14:22.079Z,10.00
2022-10-18T14:16:48.510Z,9.80
2022-10-18T14:19:39.115Z,6.53
2022-10-18T14:22:20.910Z,5.30
2022-10-18T14:24:51.621Z,6.55
2022-10-18T14:27:21.195Z,7.55
2022-10-18T14:29:49.577Z,6.80
2022-10-18T14:32:26.759Z,7.13
2022-10-18T14:34:55.767Z,6.43
2022-10-18T14:37:32.948Z,5.63
2022-10-18T14:39:59.847Z,8.13
2022-10-18T14:42:27.772Z,4.90
2022-10-18T14:44:56.426Z,8.15
2022-10-18T14:47:28.610Z,6.90
2022-10-18T14:49:55.238Z,7.07
2022-10-18T14:52:35.477Z,7.22
2022-10-18T14:55:02.839Z,10.25
2022-10-18T14:57:36.181Z,5.93
2022-10-18T15:00:08.033Z,8.05
2022-10-18T15:02:38.705Z,6.40
2022-10-18T15:05:06.709Z,8.48
2022-10-18T15:07:33.981Z,11.85
2022-10-18T15:10:03.003Z,8.80
2022-10-18T15:12:37.009Z,7.70
2022-10-18T15:15:20.653Z,9.05
2022-10-18T15:17:49.240Z,5.63
2022-10-18T15:20:20.953Z,8.55
2022-10-18T15:22:47.690Z,9.32
2022-10-18T15:25:32.003Z,6.80
2022-10-18T15:27:59.591Z,8.57
2022-10-18T15:30:37.937Z,6.30
2022-10-18T15:33:07.139Z,7.68
2022-10-18T15:35:35.733Z,8.68
2022-10-18T15:38:13.371Z,7.38
2022-10-18T15:40:41.224Z,4.13
2022-10-18T15:43:22.695Z,6.70
2022-10-18T15:45:51.680Z,6.60
2022-10-18T15:48:23.238Z,7.75
2022-10-18T15:50:58.454Z,6.93
2022-10-18T15:53:30.939Z,7.97
2022-10-18T15:56:06.297Z,4.68
2022-10-18T15:58:48.078Z,5.80
2022-10-18T16:01:32.365Z,4.07
2022-10-18T16:04:00.823Z,7.50
2022-10-18T16:06:27.318Z,5.28
2022-10-18T16:08:53.967Z,6.60
2022-10-18T16:11:25.428Z,6.28
2022-10-18T16:13:55.260Z,7.53
2022-10-18T16:16:27.010Z,5.60
2022-10-18T16:18:53.774Z,7.82
2022-10-18T16:21:27.697Z,9.77
2022-10-18T16:23:54.458Z,8.02
2022-10-18T16:26:21.950Z,6.28
2022-10-18T16:28:49.591Z,6.35
2022-10-18T16:31:19.836Z,7.95
2022-10-18T16:33:47.043Z,11.55
2022-10-18T16:36:21.320Z,9.00
2022-10-18T16:38:49.470Z,8.35
2022-10-18T16:41:16.247Z,8.48
2022-10-18T16:43:44.618Z,7.03
2022-10-18T16:46:28.610Z,8.35
2022-10-18T16:48:55.501Z,5.15
2022-10-18T16:51:22.367Z,6.45
2022-10-18T16:53:49.232Z,8.00
2022-10-18T16:56:18.555Z,11.00
2022-10-18T16:58:46.426Z,5.53
2022-10-18T17:01:14.825Z,6.38
2022-10-18T17:03:41.394Z,6.63
2022-10-18T17:06:17.788Z,14.32
2022-10-18T17:08:45.179Z,7.32
2022-10-18T17:11:13.329Z,6.82
2022-10-18T17:13:40.326Z,10.52
2022-10-18T17:16:18.904Z,7.20
2022-10-18T17:18:45.402Z,6.75
2022-10-18T17:21:11.844Z,7.15
2022-10-18T17:23:38.326Z,11.43
2022-10-18T17:26:15.034Z,15.93
2022-10-18T17:28:56.742Z,17.80
2022-10-18T17:31:23.561Z,18.98
2022-10-18T17:33:50.072Z,15.90
2022-10-18T17:36:16.698Z,15.70
2022-10-18T17:38:43.132Z,23.45
2022-10-18T17:41:10.944Z,22.48
2022-10-18T17:46:12.562Z,12.85
2022-10-18T17:48:38.989Z,10.05
2022-10-18T17:51:13.464Z,16.40
2022-10-18T17:53:39.989Z,7.18
2022-10-18T17:56:06.941Z,7.95
2022-10-18T17:58:33.538Z,9.82
2022-10-18T18:01:14.220Z,10.07
2022-10-18T18:03:41.147Z,63.60
2022-10-18T18:06:21.117Z,62.65
2022-10-18T18:08:48.876Z,57.45
2022-10-18T18:11:16.964Z,88.70
2022-10-18T18:13:43.501Z,82.00
2022-10-18T18:16:21.518Z,72.43
2022-10-18T18:18:49.915Z,47.97
2022-10-18T18:21:17.048Z,22.95
2022-10-18T18:23:43.636Z,26.52
2022-10-18T18:26:10.326Z,13.77
2022-10-18T18:28:37.474Z,11.93
2022-10-18T18:31:08.333Z,14.07
2022-10-18T18:33:35.840Z,10.13
2022-10-18T18:36:03.896Z,11.20
2022-10-18T18:38:31.885Z,8.35
2022-10-18T18:41:07.407Z,10.75
2022-10-18T18:43:34.864Z,11.07
2022-10-18T18:46:01.773Z,13.02
2022-10-18T18:48:28.663Z,8.88
2022-10-18T18:50:55.379Z,11.48
2022-10-18T18:53:24.054Z,10.52
2022-10-18T18:55:52.381Z,13.45
2022-10-18T18:58:18.919Z,10.30
2022-10-18T19:00:45.674Z,9.23
2022-10-18T19:03:12.184Z,9.70
2022-10-18T19:05:38.716Z,9.13
2022-10-18T19:08:05.351Z,9.93
2022-10-18T19:10:31.959Z,10.95
2022-10-18T19:12:58.485Z,9.48
2022-10-18T19:15:25.011Z,9.30
2022-10-18T19:17:51.486Z,7.82
2022-10-18T19:20:18.130Z,12.68
2022-10-18T19:22:45.178Z,12.15
2022-10-18T19:25:11.754Z,11.70
2022-10-18T19:27:38.262Z,10.00
2022-10-18T19:30:07.751Z,9.88
2022-10-18T19:32:34.845Z,10.70
2022-10-18T19:35:01.384Z,13.20
2022-10-18T19:37:27.815Z,12.80
2022-10-18T19:39:54.289Z,12.35
2022-10-18T19:42:24.196Z,9.38
2022-10-18T19:44:53.000Z,9.45
2022-10-18T19:47:19.565Z,11.00
2022-10-18T19:49:46.334Z,10.60
2022-10-18T19:52:12.817Z,12.23
2022-10-18T19:54:39.593Z,9.43
2022-10-18T19:57:06.047Z,12.20
2022-10-18T19:59:32.537Z,11.65
2022-10-18T20:01:59.024Z,15.77
2022-10-18T20:04:25.533Z,11.55
2022-10-18T20:06:52.038Z,13.55
2022-10-18T20:09:20.622Z,12.70
2022-10-18T20:11:47.385Z,23.67
2022-10-18T20:14:13.848Z,12.38
2022-10-18T20:16:40.312Z,12.77
2022-10-18T20:19:07.608Z,7.47
2022-10-18T20:21:35.329Z,11.52
2022-10-18T20:24:03.094Z,16.77
2022-10-18T20:26:29.664Z,13.65
2022-10-18T20:28:57.913Z,13.43
2022-10-18T20:31:30.015Z,14.55
2022-10-18T20:34:02.654Z,13.82
2022-10-18T20:36:31.845Z,13.45
2022-10-18T20:38:59.296Z,14.57
2022-10-18T20:41:27.698Z,16.15
2022-10-18T20:43:56.681Z,16.38
2022-10-18T20:46:24.295Z,20.98
2022-10-18T20:48:52.545Z,19.88
2022-10-18T20:51:19.725Z,17.50
2022-10-18T20:53:46.295Z,14.63
2022-10-18T20:56:15.698Z,15.15
2022-10-18T20:58:44.195Z,16.30
2022-10-18T21:01:16.766Z,16.25
2022-10-18T21:03:46.403Z,21.38
2022-10-18T21:06:14.125Z,13.02
2022-10-18T21:08:41.392Z,18.80
2022-10-18T21:11:09.220Z,19.05
2022-10-18T21:13:35.886Z,19.40
2022-10-18T21:16:04.178Z,16.52
2022-10-18T21:18:32.720Z,19.17
2022-10-18T21:23:39.980Z,15.68
2022-10-18T21:26:06.962Z,14.65
2022-10-18T21:28:33.489Z,16.08
2022-10-18T21:31:10.238Z,15.20
2022-10-18T21:33:36.695Z,12.07
2022-10-18T21:36:03.750Z,15.57
2022-10-18T21:38:30.214Z,12.52
2022-10-18T21:40:56.754Z,20.00
2022-10-18T21:43:23.204Z,12.13
2022-10-18T21:45:49.721Z,13.32
2022-10-18T21:48:16.212Z,16.27
2022-10-18T21:50:42.741Z,10.82
2022-10-18T21:53:09.194Z,13.68
2022-10-18T21:55:35.969Z,10.30
2022-10-18T21:58:02.432Z,13.77
2022-10-18T22:00:28.909Z,18.85
2022-10-18T22:03:08.310Z,15.98
2022-10-18T22:05:34.839Z,15.52
2022-10-18T22:08:01.595Z,13.02
2022-10-18T22:10:28.276Z,12.82
2022-10-18T22:12:54.933Z,17.15
2022-10-18T22:15:21.561Z,11.63
2022-10-18T22:17:48.073Z,15.40
2022-10-18T22:20:14.666Z,15.55
2022-10-18T22:22:41.132Z,14.02
2022-10-18T22:25:08.065Z,25.25
2022-10-18T22:27:34.822Z,15.60
2022-10-18T22:30:01.640Z,23.02
2022-10-18T22:32:28.096Z,17.20
2022-10-18T22:34:54.577Z,20.10
2022-10-18T22:37:21.038Z,20.73
2022-10-18T22:39:47.503Z,14.25
2022-10-18T22:42:13.957Z,21.05
2022-10-18T22:44:40.433Z,18.58
2022-10-18T22:47:06.874Z,16.08
2022-10-18T22:49:33.329Z,18.30
2022-10-18T22:51:59.791Z,17.52
2022-10-18T22:54:26.256Z,17.20
2022-10-18T22:56:52.670Z,10.75
2022-10-18T22:59:19.301Z,13.55
2022-10-18T23:01:45.743Z,15.68
2022-10-18T23:04:12.167Z,15.00
2022-10-18T23:06:39.501Z,14.73
2022-10-18T23:09:08.654Z,11.15
2022-10-18T23:11:35.907Z,16.15
2022-10-18T23:14:03.460Z,14.10
2022-10-18T23:16:30.202Z,19.40
2022-10-18T23:18:57.983Z,19.25
2022-10-18T23:21:26.356Z,21.65
2022-10-18T23:23:53.883Z,21.33
2022-10-18T23:26:23.437Z,12.20
2022-10-18T23:28:51.680Z,16.98
2022-10-18T23:31:21.429Z,18.50
2022-10-18T23:33:49.457Z,14.65
2022-10-18T23:36:16.580Z,15.60
2022-10-18T23:38:43.321Z,13.13
2022-10-18T23:41:12.693Z,18.35
2022-10-18T23:43:39.293Z,17.15
2022-10-18T23:46:06.112Z,14.02
2022-10-18T23:48:32.745Z,15.85
2022-10-18T23:50:59.447Z,16.17
2022-10-18T23:53:26.251Z,17.17
2022-10-18T23:56:03.197Z,13.43
2022-10-18T23:58:31.927Z,19.98
